ADDS METAR Data

Data at: 0507 UTC 20 Apr 2018

METAR for:CYSJ (Saint John Arpt, NB, CN)
Text:CYSJ 200500Z 04002KT 10SM -RA SCT008 OVC024 02/02 A2965 RMK SF4SC4 SLP045
Temperature: 2.0°C ( 36°F)
Dewpoint: 2.0°C ( 36°F) [RH = 100%]
Pressure (altimeter):29.65 inches Hg (1004.1 mb) [Sea level pressure: 1004.5 mb]
Winds:from the NE (40 degrees) at 2 MPH (2 knots; 1.0 m/s)
Visibility:10 or more sm (16+ km)
Ceiling:2400 feet AGL
Clouds: scattered clouds at 800 feet AGL, overcast cloud deck at 2400 feet AGL
Weather:-RA (light rain)